sensor_id;sensor_type;location;lat;lon;timestamp;temperature;humidity
79244;SHT31;68672;42.676;23.356;2023-05-10T00:01:00;10.98;77.64
79244;SHT31;68672;42.676;23.356;2023-05-10T00:03:29;11.01;77.58
79244;SHT31;68672;42.676;23.356;2023-05-10T00:05:55;10.99;77.34
79244;SHT31;68672;42.676;23.356;2023-05-10T00:08:23;10.98;77.46
79244;SHT31;68672;42.676;23.356;2023-05-10T00:10:49;10.96;77.16
79244;SHT31;68672;42.676;23.356;2023-05-10T00:13:15;10.96;77.43
79244;SHT31;68672;42.676;23.356;2023-05-10T00:15:43;10.96;77.33
79244;SHT31;68672;42.676;23.356;2023-05-10T00:18:08;10.98;77.16
79244;SHT31;68672;42.676;23.356;2023-05-10T00:20:34;10.94;77.26
79244;SHT31;68672;42.676;23.356;2023-05-10T00:23:02;10.91;77.36
79244;SHT31;68672;42.676;23.356;2023-05-10T00:25:28;10.88;77.18
79244;SHT31;68672;42.676;23.356;2023-05-10T00:27:53;10.91;76.92
79244;SHT31;68672;42.676;23.356;2023-05-10T00:30:20;10.86;77.15
79244;SHT31;68672;42.676;23.356;2023-05-10T00:32:46;10.86;77.13
79244;SHT31;68672;42.676;23.356;2023-05-10T00:35:13;10.86;77.09
79244;SHT31;68672;42.676;23.356;2023-05-10T00:37:38;10.88;77.44
79244;SHT31;68672;42.676;23.356;2023-05-10T00:40:05;10.88;77.48
79244;SHT31;68672;42.676;23.356;2023-05-10T00:42:30;10.86;77.47
79244;SHT31;68672;42.676;23.356;2023-05-10T00:44:56;10.88;77.46
79244;SHT31;68672;42.676;23.356;2023-05-10T00:47:24;10.91;77.39
79244;SHT31;68672;42.676;23.356;2023-05-10T00:49:52;10.89;77.19
79244;SHT31;68672;42.676;23.356;2023-05-10T00:52:18;10.91;77.12
79244;SHT31;68672;42.676;23.356;2023-05-10T00:54:43;10.91;77.09
79244;SHT31;68672;42.676;23.356;2023-05-10T00:57:09;10.91;77.11
79244;SHT31;68672;42.676;23.356;2023-05-10T00:59:35;10.85;76.79
79244;SHT31;68672;42.676;23.356;2023-05-10T01:02:02;10.86;76.60
79244;SHT31;68672;42.676;23.356;2023-05-10T01:04:27;10.81;76.17
79244;SHT31;68672;42.676;23.356;2023-05-10T01:06:53;10.75;76.28
79244;SHT31;68672;42.676;23.356;2023-05-10T01:09:20;10.69;76.34
79244;SHT31;68672;42.676;23.356;2023-05-10T01:11:47;10.68;76.72
79244;SHT31;68672;42.676;23.356;2023-05-10T01:14:18;10.64;76.54
79244;SHT31;68672;42.676;23.356;2023-05-10T01:16:44;10.61;76.87
79244;SHT31;68672;42.676;23.356;2023-05-10T01:19:22;10.58;76.65
79244;SHT31;68672;42.676;23.356;2023-05-10T01:27:36;10.55;75.90
79244;SHT31;68672;42.676;23.356;2023-05-10T01:41:16;10.33;76.71
79244;SHT31;68672;42.676;23.356;2023-05-10T01:46:23;10.34;77.20
79244;SHT31;68672;42.676;23.356;2023-05-10T01:48:52;10.34;77.06
79244;SHT31;68672;42.676;23.356;2023-05-10T01:51:24;10.38;77.20
79244;SHT31;68672;42.676;23.356;2023-05-10T01:53:58;10.38;77.32
79244;SHT31;68672;42.676;23.356;2023-05-10T01:56:26;10.45;76.72
79244;SHT31;68672;42.676;23.356;2023-05-10T01:58:56;10.40;77.01
79244;SHT31;68672;42.676;23.356;2023-05-10T02:01:22;10.40;77.11
79244;SHT31;68672;42.676;23.356;2023-05-10T02:03:50;10.40;76.89
79244;SHT31;68672;42.676;23.356;2023-05-10T02:06:18;10.40;76.48
79244;SHT31;68672;42.676;23.356;2023-05-10T02:08:48;10.41;76.27
79244;SHT31;68672;42.676;23.356;2023-05-10T02:11:14;10.38;75.78
79244;SHT31;68672;42.676;23.356;2023-05-10T02:13:41;10.37;75.30
79244;SHT31;68672;42.676;23.356;2023-05-10T02:16:13;10.32;75.32
79244;SHT31;68672;42.676;23.356;2023-05-10T02:18:40;10.29;73.61
79244;SHT31;68672;42.676;23.356;2023-05-10T02:21:08;10.20;74.00
79244;SHT31;68672;42.676;23.356;2023-05-10T02:23:34;10.07;73.20
79244;SHT31;68672;42.676;23.356;2023-05-10T02:26:01;10.04;73.03
79244;SHT31;68672;42.676;23.356;2023-05-10T02:28:27;9.96;72.79
79244;SHT31;68672;42.676;23.356;2023-05-10T02:30:55;9.85;72.88
79244;SHT31;68672;42.676;23.356;2023-05-10T02:33:21;9.76;72.85
79244;SHT31;68672;42.676;23.356;2023-05-10T02:35:47;9.72;72.61
79244;SHT31;68672;42.676;23.356;2023-05-10T02:38:19;9.65;72.62
79244;SHT31;68672;42.676;23.356;2023-05-10T02:40:46;9.61;71.77
79244;SHT31;68672;42.676;23.356;2023-05-10T02:43:14;9.52;71.49
79244;SHT31;68672;42.676;23.356;2023-05-10T02:45:41;9.44;71.32
79244;SHT31;68672;42.676;23.356;2023-05-10T02:48:07;9.34;71.17
79244;SHT31;68672;42.676;23.356;2023-05-10T02:50:33;9.27;70.42
79244;SHT31;68672;42.676;23.356;2023-05-10T02:53:06;9.18;71.17
79244;SHT31;68672;42.676;23.356;2023-05-10T02:55:38;9.13;71.62
79244;SHT31;68672;42.676;23.356;2023-05-10T02:58:04;9.03;72.11
79244;SHT31;68672;42.676;23.356;2023-05-10T03:00:29;9.00;70.30
79244;SHT31;68672;42.676;23.356;2023-05-10T03:02:55;8.93;71.02
79244;SHT31;68672;42.676;23.356;2023-05-10T03:05:20;8.84;71.14
79244;SHT31;68672;42.676;23.356;2023-05-10T03:07:47;8.84;72.57
79244;SHT31;68672;42.676;23.356;2023-05-10T03:10:12;8.87;72.03
79244;SHT31;68672;42.676;23.356;2023-05-10T03:13:07;8.90;72.72
79244;SHT31;68672;42.676;23.356;2023-05-10T03:21:11;8.93;73.26
79244;SHT31;68672;42.676;23.356;2023-05-10T03:23:59;8.99;73.21
79244;SHT31;68672;42.676;23.356;2023-05-10T03:26:34;9.03;73.57
79244;SHT31;68672;42.676;23.356;2023-05-10T03:29:00;9.03;73.51
79244;SHT31;68672;42.676;23.356;2023-05-10T03:31:26;9.10;73.71
79244;SHT31;68672;42.676;23.356;2023-05-10T03:33:52;9.14;73.64
79244;SHT31;68672;42.676;23.356;2023-05-10T03:36:18;9.23;73.04
79244;SHT31;68672;42.676;23.356;2023-05-10T03:38:44;9.30;72.20
79244;SHT31;68672;42.676;23.356;2023-05-10T03:41:10;9.24;71.61
79244;SHT31;68672;42.676;23.356;2023-05-10T03:46:19;9.20;70.40
79244;SHT31;68672;42.676;23.356;2023-05-10T03:48:45;9.18;71.19
79244;SHT31;68672;42.676;23.356;2023-05-10T03:51:10;9.17;71.54
79244;SHT31;68672;42.676;23.356;2023-05-10T03:53:36;9.17;71.36
79244;SHT31;68672;42.676;23.356;2023-05-10T03:56:01;9.14;69.90
79244;SHT31;68672;42.676;23.356;2023-05-10T03:58:26;8.94;70.38
79244;SHT31;68672;42.676;23.356;2023-05-10T04:00:52;8.91;70.57
79244;SHT31;68672;42.676;23.356;2023-05-10T04:03:17;8.79;70.92
79244;SHT31;68672;42.676;23.356;2023-05-10T04:05:43;8.70;71.73
79244;SHT31;68672;42.676;23.356;2023-05-10T04:08:11;8.60;72.98
79244;SHT31;68672;42.676;23.356;2023-05-10T04:10:37;8.56;73.01
79244;SHT31;68672;42.676;23.356;2023-05-10T04:13:05;8.49;73.46
79244;SHT31;68672;42.676;23.356;2023-05-10T04:15:30;8.48;73.42
79244;SHT31;68672;42.676;23.356;2023-05-10T04:17:56;8.44;73.73
79244;SHT31;68672;42.676;23.356;2023-05-10T04:20:24;8.46;74.19
79244;SHT31;68672;42.676;23.356;2023-05-10T04:22:49;8.48;73.98
79244;SHT31;68672;42.676;23.356;2023-05-10T04:25:15;8.45;74.18
79244;SHT31;68672;42.676;23.356;2023-05-10T04:27:40;8.44;74.17
79244;SHT31;68672;42.676;23.356;2023-05-10T04:30:09;8.45;74.41
79244;SHT31;68672;42.676;23.356;2023-05-10T04:32:37;8.41;74.72
79244;SHT31;68672;42.676;23.356;2023-05-10T04:35:02;8.46;74.35
79244;SHT31;68672;42.676;23.356;2023-05-10T04:37:29;8.44;74.47
79244;SHT31;68672;42.676;23.356;2023-05-10T04:39:55;8.44;74.79
79244;SHT31;68672;42.676;23.356;2023-05-10T04:42:23;8.48;74.56
79244;SHT31;68672;42.676;23.356;2023-05-10T04:44:48;8.48;74.55
79244;SHT31;68672;42.676;23.356;2023-05-10T04:47:14;8.52;74.42
79244;SHT31;68672;42.676;23.356;2023-05-10T04:49:39;8.52;74.20
79244;SHT31;68672;42.676;23.356;2023-05-10T04:52:05;8.50;74.27
79244;SHT31;68672;42.676;23.356;2023-05-10T04:54:30;8.50;74.16
79244;SHT31;68672;42.676;23.356;2023-05-10T04:56:55;8.50;74.27
79244;SHT31;68672;42.676;23.356;2023-05-10T04:59:21;8.56;74.53
79244;SHT31;68672;42.676;23.356;2023-05-10T05:01:46;8.69;74.28
79244;SHT31;68672;42.676;23.356;2023-05-10T05:04:12;8.80;73.12
79244;SHT31;68672;42.676;23.356;2023-05-10T05:06:37;8.93;72.96
79244;SHT31;68672;42.676;23.356;2023-05-10T05:09:03;9.03;72.83
79244;SHT31;68672;42.676;23.356;2023-05-10T05:11:28;9.10;72.66
79244;SHT31;68672;42.676;23.356;2023-05-10T05:13:59;9.21;72.52
79244;SHT31;68672;42.676;23.356;2023-05-10T05:16:25;9.30;71.08
79244;SHT31;68672;42.676;23.356;2023-05-10T05:18:56;9.39;71.43
79244;SHT31;68672;42.676;23.356;2023-05-10T05:21:28;9.39;70.49
79244;SHT31;68672;42.676;23.356;2023-05-10T05:23:53;9.49;71.08
79244;SHT31;68672;42.676;23.356;2023-05-10T05:26:19;9.59;70.42
79244;SHT31;68672;42.676;23.356;2023-05-10T05:28:47;9.62;70.10
79244;SHT31;68672;42.676;23.356;2023-05-10T05:31:13;9.68;69.95
79244;SHT31;68672;42.676;23.356;2023-05-10T05:33:39;9.66;70.21
79244;SHT31;68672;42.676;23.356;2023-05-10T05:36:05;9.71;70.32
79244;SHT31;68672;42.676;23.356;2023-05-10T05:38:31;9.75;70.32
79244;SHT31;68672;42.676;23.356;2023-05-10T05:40:56;9.75;70.31
79244;SHT31;68672;42.676;23.356;2023-05-10T05:43:22;9.78;70.47
79244;SHT31;68672;42.676;23.356;2023-05-10T05:45:48;9.85;70.47
79244;SHT31;68672;42.676;23.356;2023-05-10T05:48:16;9.90;70.31
79244;SHT31;68672;42.676;23.356;2023-05-10T05:50:42;9.96;70.23
79244;SHT31;68672;42.676;23.356;2023-05-10T05:53:08;9.95;70.47
79244;SHT31;68672;42.676;23.356;2023-05-10T05:55:34;9.92;70.65
79244;SHT31;68672;42.676;23.356;2023-05-10T05:57:59;9.95;70.85
79244;SHT31;68672;42.676;23.356;2023-05-10T06:00:24;9.97;70.92
79244;SHT31;68672;42.676;23.356;2023-05-10T06:02:51;9.99;70.80
79244;SHT31;68672;42.676;23.356;2023-05-10T06:05:16;10.06;70.45
79244;SHT31;68672;42.676;23.356;2023-05-10T06:07:45;10.06;70.60
79244;SHT31;68672;42.676;23.356;2023-05-10T06:10:11;10.07;69.15
79244;SHT31;68672;42.676;23.356;2023-05-10T06:12:36;10.03;69.67
79244;SHT31;68672;42.676;23.356;2023-05-10T06:15:02;9.96;69.89
79244;SHT31;68672;42.676;23.356;2023-05-10T06:17:28;9.99;70.22
79244;SHT31;68672;42.676;23.356;2023-05-10T06:19:54;10.04;70.72
79244;SHT31;68672;42.676;23.356;2023-05-10T06:22:19;10.10;70.18
79244;SHT31;68672;42.676;23.356;2023-05-10T06:24:47;10.10;70.04
79244;SHT31;68672;42.676;23.356;2023-05-10T06:27:13;10.09;68.97
79244;SHT31;68672;42.676;23.356;2023-05-10T06:29:38;10.10;69.57
79244;SHT31;68672;42.676;23.356;2023-05-10T06:32:04;10.09;69.32
79244;SHT31;68672;42.676;23.356;2023-05-10T06:34:29;10.12;69.23
79244;SHT31;68672;42.676;23.356;2023-05-10T06:36:55;10.13;69.11
79244;SHT31;68672;42.676;23.356;2023-05-10T06:39:20;10.17;69.15
79244;SHT31;68672;42.676;23.356;2023-05-10T06:41:46;10.18;68.17
79244;SHT31;68672;42.676;23.356;2023-05-10T06:44:11;10.21;68.44
79244;SHT31;68672;42.676;23.356;2023-05-10T06:46:38;10.18;67.97
79244;SHT31;68672;42.676;23.356;2023-05-10T06:49:03;10.21;68.20
79244;SHT31;68672;42.676;23.356;2023-05-10T06:51:29;10.21;68.21
79244;SHT31;68672;42.676;23.356;2023-05-10T06:53:57;10.27;68.43
79244;SHT31;68672;42.676;23.356;2023-05-10T06:56:22;10.32;68.16
79244;SHT31;68672;42.676;23.356;2023-05-10T06:58:48;10.34;66.62
79244;SHT31;68672;42.676;23.356;2023-05-10T07:01:13;10.27;66.48
79244;SHT31;68672;42.676;23.356;2023-05-10T07:03:38;10.27;67.23
79244;SHT31;68672;42.676;23.356;2023-05-10T07:06:04;10.33;67.35
79244;SHT31;68672;42.676;23.356;2023-05-10T07:08:33;10.36;66.88
79244;SHT31;68672;42.676;23.356;2023-05-10T07:11:03;10.36;65.11
79244;SHT31;68672;42.676;23.356;2023-05-10T07:13:32;10.30;65.19
79244;SHT31;68672;42.676;23.356;2023-05-10T07:15:59;10.26;65.25
79244;SHT31;68672;42.676;23.356;2023-05-10T07:18:25;10.23;65.66
79244;SHT31;68672;42.676;23.356;2023-05-10T07:20:50;10.20;65.85
79244;SHT31;68672;42.676;23.356;2023-05-10T07:23:25;10.24;65.74
79244;SHT31;68672;42.676;23.356;2023-05-10T07:25:51;10.30;65.48
79244;SHT31;68672;42.676;23.356;2023-05-10T07:28:19;10.32;64.62
79244;SHT31;68672;42.676;23.356;2023-05-10T07:30:45;10.30;65.43
79244;SHT31;68672;42.676;23.356;2023-05-10T07:33:13;10.36;64.88
79244;SHT31;68672;42.676;23.356;2023-05-10T07:35:38;10.38;64.36
79244;SHT31;68672;42.676;23.356;2023-05-10T07:38:04;10.36;64.68
79244;SHT31;68672;42.676;23.356;2023-05-10T07:40:29;10.29;64.77
79244;SHT31;68672;42.676;23.356;2023-05-10T07:42:55;10.34;65.12
79244;SHT31;68672;42.676;23.356;2023-05-10T07:45:21;10.41;65.03
79244;SHT31;68672;42.676;23.356;2023-05-10T07:47:47;10.43;64.33
79244;SHT31;68672;42.676;23.356;2023-05-10T07:50:13;10.43;64.37
79244;SHT31;68672;42.676;23.356;2023-05-10T07:52:38;10.44;65.03
79244;SHT31;68672;42.676;23.356;2023-05-10T07:55:04;10.43;64.90
79244;SHT31;68672;42.676;23.356;2023-05-10T07:57:30;10.50;63.80
79244;SHT31;68672;42.676;23.356;2023-05-10T07:59:55;10.44;64.01
79244;SHT31;68672;42.676;23.356;2023-05-10T08:02:21;10.41;64.09
79244;SHT31;68672;42.676;23.356;2023-05-10T08:04:46;10.40;64.37
79244;SHT31;68672;42.676;23.356;2023-05-10T08:07:12;10.40;62.86
79244;SHT31;68672;42.676;23.356;2023-05-10T08:09:37;10.40;64.05
79244;SHT31;68672;42.676;23.356;2023-05-10T08:12:03;10.44;64.32
79244;SHT31;68672;42.676;23.356;2023-05-10T08:14:29;10.47;63.58
79244;SHT31;68672;42.676;23.356;2023-05-10T08:16:57;10.50;64.03
79244;SHT31;68672;42.676;23.356;2023-05-10T08:19:25;10.54;63.41
79244;SHT31;68672;42.676;23.356;2023-05-10T08:21:51;10.58;63.85
79244;SHT31;68672;42.676;23.356;2023-05-10T08:24:16;10.64;64.14
79244;SHT31;68672;42.676;23.356;2023-05-10T08:26:44;10.67;64.01
79244;SHT31;68672;42.676;23.356;2023-05-10T08:29:10;10.76;63.67
79244;SHT31;68672;42.676;23.356;2023-05-10T08:31:35;10.82;63.19
79244;SHT31;68672;42.676;23.356;2023-05-10T08:34:01;10.81;63.03
79244;SHT31;68672;42.676;23.356;2023-05-10T08:36:26;10.81;62.96
79244;SHT31;68672;42.676;23.356;2023-05-10T08:38:53;10.71;63.69
79244;SHT31;68672;42.676;23.356;2023-05-10T08:41:22;10.71;64.63
79244;SHT31;68672;42.676;23.356;2023-05-10T08:43:54;10.69;65.82
79244;SHT31;68672;42.676;23.356;2023-05-10T08:46:23;10.67;66.41
79244;SHT31;68672;42.676;23.356;2023-05-10T08:48:50;10.74;67.26
79244;SHT31;68672;42.676;23.356;2023-05-10T08:51:23;10.79;67.11
79244;SHT31;68672;42.676;23.356;2023-05-10T08:53:52;10.85;67.38
79244;SHT31;68672;42.676;23.356;2023-05-10T08:56:17;10.91;66.67
79244;SHT31;68672;42.676;23.356;2023-05-10T08:58:43;10.88;65.68
79244;SHT31;68672;42.676;23.356;2023-05-10T09:01:09;10.85;65.78
79244;SHT31;68672;42.676;23.356;2023-05-10T09:03:38;10.78;66.15
79244;SHT31;68672;42.676;23.356;2023-05-10T09:06:03;10.86;66.42
79244;SHT31;68672;42.676;23.356;2023-05-10T09:08:30;10.91;66.85
79244;SHT31;68672;42.676;23.356;2023-05-10T09:10:56;10.98;66.77
79244;SHT31;68672;42.676;23.356;2023-05-10T09:13:25;11.02;65.68
79244;SHT31;68672;42.676;23.356;2023-05-10T09:15:54;11.02;64.77
79244;SHT31;68672;42.676;23.356;2023-05-10T09:18:19;10.99;65.24
79244;SHT31;68672;42.676;23.356;2023-05-10T09:20:44;10.95;64.44
79244;SHT31;68672;42.676;23.356;2023-05-10T09:23:10;10.99;65.04
79244;SHT31;68672;42.676;23.356;2023-05-10T09:25:36;11.08;65.22
79244;SHT31;68672;42.676;23.356;2023-05-10T09:28:08;11.12;64.45
79244;SHT31;68672;42.676;23.356;2023-05-10T09:30:35;11.13;64.84
79244;SHT31;68672;42.676;23.356;2023-05-10T09:33:01;11.15;64.86
79244;SHT31;68672;42.676;23.356;2023-05-10T09:35:28;11.16;64.37
79244;SHT31;68672;42.676;23.356;2023-05-10T09:37:55;11.18;65.20
79244;SHT31;68672;42.676;23.356;2023-05-10T09:40:22;11.18;64.39
79244;SHT31;68672;42.676;23.356;2023-05-10T09:43:02;11.20;64.86
79244;SHT31;68672;42.676;23.356;2023-05-10T09:45:30;11.19;64.77
79244;SHT31;68672;42.676;23.356;2023-05-10T09:47:56;11.22;64.43
79244;SHT31;68672;42.676;23.356;2023-05-10T09:50:24;11.22;64.88
79244;SHT31;68672;42.676;23.356;2023-05-10T09:52:56;11.23;64.01
79244;SHT31;68672;42.676;23.356;2023-05-10T09:55:38;11.22;64.49
79244;SHT31;68672;42.676;23.356;2023-05-10T09:58:04;11.23;65.03
79244;SHT31;68672;42.676;23.356;2023-05-10T10:00:36;11.23;65.39
79244;SHT31;68672;42.676;23.356;2023-05-10T10:03:03;11.32;64.45
79244;SHT31;68672;42.676;23.356;2023-05-10T10:05:35;11.34;64.37
79244;SHT31;68672;42.676;23.356;2023-05-10T10:08:05;11.36;63.88
79244;SHT31;68672;42.676;23.356;2023-05-10T10:10:32;11.32;64.66
79244;SHT31;68672;42.676;23.356;2023-05-10T10:12:58;11.34;64.26
79244;SHT31;68672;42.676;23.356;2023-05-10T10:15:23;11.37;63.92
79244;SHT31;68672;42.676;23.356;2023-05-10T10:17:53;11.36;64.17
79244;SHT31;68672;42.676;23.356;2023-05-10T10:20:20;11.40;64.05
79244;SHT31;68672;42.676;23.356;2023-05-10T10:22:46;11.40;64.12
79244;SHT31;68672;42.676;23.356;2023-05-10T10:25:14;11.44;63.48
79244;SHT31;68672;42.676;23.356;2023-05-10T10:36:00;11.63;62.98
79244;SHT31;68672;42.676;23.356;2023-05-10T10:38:36;11.71;63.05
79244;SHT31;68672;42.676;23.356;2023-05-10T10:41:09;11.80;63.15
79244;SHT31;68672;42.676;23.356;2023-05-10T10:43:34;11.84;62.85
79244;SHT31;68672;42.676;23.356;2023-05-10T10:46:18;11.87;62.37
79244;SHT31;68672;42.676;23.356;2023-05-10T10:48:48;11.81;62.12
79244;SHT31;68672;42.676;23.356;2023-05-10T10:51:14;11.71;62.07
79244;SHT31;68672;42.676;23.356;2023-05-10T10:53:40;11.74;62.21
79244;SHT31;68672;42.676;23.356;2023-05-10T10:56:10;11.78;62.60
79244;SHT31;68672;42.676;23.356;2023-05-10T10:58:37;11.87;62.60
79244;SHT31;68672;42.676;23.356;2023-05-10T11:01:33;12.01;61.89
79244;SHT31;68672;42.676;23.356;2023-05-10T11:06:36;12.12;60.56
79244;SHT31;68672;42.676;23.356;2023-05-10T11:09:08;12.15;60.65
79244;SHT31;68672;42.676;23.356;2023-05-10T11:11:35;12.21;60.61
79244;SHT31;68672;42.676;23.356;2023-05-10T11:14:07;12.18;60.38
79244;SHT31;68672;42.676;23.356;2023-05-10T11:16:45;12.17;60.66
79244;SHT31;68672;42.676;23.356;2023-05-10T11:19:12;12.11;61.11
79244;SHT31;68672;42.676;23.356;2023-05-10T11:21:49;12.11;61.70
79244;SHT31;68672;42.676;23.356;2023-05-10T11:24:17;12.17;61.61
79244;SHT31;68672;42.676;23.356;2023-05-10T11:26:43;12.24;61.66
79244;SHT31;68672;42.676;23.356;2023-05-10T11:29:09;12.31;61.45
79244;SHT31;68672;42.676;23.356;2023-05-10T11:31:35;12.36;60.65
79244;SHT31;68672;42.676;23.356;2023-05-10T11:34:00;12.42;61.31
79244;SHT31;68672;42.676;23.356;2023-05-10T11:36:36;12.46;60.72
79244;SHT31;68672;42.676;23.356;2023-05-10T11:39:02;12.39;60.60
79244;SHT31;68672;42.676;23.356;2023-05-10T11:41:31;12.31;61.33
79244;SHT31;68672;42.676;23.356;2023-05-10T11:44:00;12.33;61.46
79244;SHT31;68672;42.676;23.356;2023-05-10T11:46:27;12.35;61.33
79244;SHT31;68672;42.676;23.356;2023-05-10T11:48:57;12.33;61.35
79244;SHT31;68672;42.676;23.356;2023-05-10T11:51:24;12.33;61.04
79244;SHT31;68672;42.676;23.356;2023-05-10T11:53:52;12.32;61.53
79244;SHT31;68672;42.676;23.356;2023-05-10T11:56:18;12.28;61.33
79244;SHT31;68672;42.676;23.356;2023-05-10T11:58:44;12.24;61.63
79244;SHT31;68672;42.676;23.356;2023-05-10T12:01:10;12.17;62.26
79244;SHT31;68672;42.676;23.356;2023-05-10T12:03:36;12.15;61.87
79244;SHT31;68672;42.676;23.356;2023-05-10T12:06:03;12.14;61.84
79244;SHT31;68672;42.676;23.356;2023-05-10T12:08:29;12.15;61.95
79244;SHT31;68672;42.676;23.356;2023-05-10T12:11:09;12.08;62.09
79244;SHT31;68672;42.676;23.356;2023-05-10T12:13:38;12.04;62.16
79244;SHT31;68672;42.676;23.356;2023-05-10T12:16:19;12.01;62.22
79244;SHT31;68672;42.676;23.356;2023-05-10T12:18:49;12.01;62.63
79244;SHT31;68672;42.676;23.356;2023-05-10T12:21:16;12.05;62.46
79244;SHT31;68672;42.676;23.356;2023-05-10T12:23:41;12.06;61.84
79244;SHT31;68672;42.676;23.356;2023-05-10T12:26:10;12.06;62.26
79244;SHT31;68672;42.676;23.356;2023-05-10T12:28:36;12.05;62.31
79244;SHT31;68672;42.676;23.356;2023-05-10T12:31:02;12.11;61.93
79244;SHT31;68672;42.676;23.356;2023-05-10T12:33:35;12.11;61.84
79244;SHT31;68672;42.676;23.356;2023-05-10T12:36:02;12.10;61.83
79244;SHT31;68672;42.676;23.356;2023-05-10T12:41:00;12.10;61.66
79244;SHT31;68672;42.676;23.356;2023-05-10T12:43:26;12.10;62.08
79244;SHT31;68672;42.676;23.356;2023-05-10T12:45:57;12.12;61.32
79244;SHT31;68672;42.676;23.356;2023-05-10T12:48:22;12.14;61.73
79244;SHT31;68672;42.676;23.356;2023-05-10T12:50:48;12.20;61.83
79244;SHT31;68672;42.676;23.356;2023-05-10T12:53:14;12.20;61.25
79244;SHT31;68672;42.676;23.356;2023-05-10T12:55:41;12.22;60.90
79244;SHT31;68672;42.676;23.356;2023-05-10T12:58:06;12.12;61.34
79244;SHT31;68672;42.676;23.356;2023-05-10T13:00:32;12.20;61.43
79244;SHT31;68672;42.676;23.356;2023-05-10T13:02:57;12.20;61.52
79244;SHT31;68672;42.676;23.356;2023-05-10T13:05:23;12.28;61.57
79244;SHT31;68672;42.676;23.356;2023-05-10T13:07:48;12.32;61.05
79244;SHT31;68672;42.676;23.356;2023-05-10T13:10:13;12.32;61.10
79244;SHT31;68672;42.676;23.356;2023-05-10T13:12:39;12.36;61.63
79244;SHT31;68672;42.676;23.356;2023-05-10T13:15:05;12.38;61.61
79244;SHT31;68672;42.676;23.356;2023-05-10T13:17:31;12.38;61.49
79244;SHT31;68672;42.676;23.356;2023-05-10T13:19:57;12.48;61.72
79244;SHT31;68672;42.676;23.356;2023-05-10T13:22:22;12.53;60.97
79244;SHT31;68672;42.676;23.356;2023-05-10T13:24:48;12.50;60.83
79244;SHT31;68672;42.676;23.356;2023-05-10T13:27:13;12.48;61.40
79244;SHT31;68672;42.676;23.356;2023-05-10T13:29:38;12.49;61.03
79244;SHT31;68672;42.676;23.356;2023-05-10T13:32:04;12.46;61.15
79244;SHT31;68672;42.676;23.356;2023-05-10T13:34:30;12.43;61.07
79244;SHT31;68672;42.676;23.356;2023-05-10T13:36:58;12.38;61.63
79244;SHT31;68672;42.676;23.356;2023-05-10T13:39:23;12.38;61.35
79244;SHT31;68672;42.676;23.356;2023-05-10T13:41:49;12.39;61.34
79244;SHT31;68672;42.676;23.356;2023-05-10T13:44:17;12.38;61.00
79244;SHT31;68672;42.676;23.356;2023-05-10T13:46:45;12.45;61.32
79244;SHT31;68672;42.676;23.356;2023-05-10T13:49:13;12.46;60.98
79244;SHT31;68672;42.676;23.356;2023-05-10T13:51:38;12.41;61.01
79244;SHT31;68672;42.676;23.356;2023-05-10T13:54:04;12.41;61.35
79244;SHT31;68672;42.676;23.356;2023-05-10T13:56:30;12.38;61.01
79244;SHT31;68672;42.676;23.356;2023-05-10T13:58:59;12.36;61.28
79244;SHT31;68672;42.676;23.356;2023-05-10T14:01:24;12.38;61.18
79244;SHT31;68672;42.676;23.356;2023-05-10T14:03:50;12.29;61.11
79244;SHT31;68672;42.676;23.356;2023-05-10T14:06:18;12.28;61.99
79244;SHT31;68672;42.676;23.356;2023-05-10T14:08:45;12.26;61.61
79244;SHT31;68672;42.676;23.356;2023-05-10T14:11:11;12.28;61.77
79244;SHT31;68672;42.676;23.356;2023-05-10T14:13:36;12.26;61.63
79244;SHT31;68672;42.676;23.356;2023-05-10T14:16:02;12.21;61.59
79244;SHT31;68672;42.676;23.356;2023-05-10T14:18:27;12.21;61.73
79244;SHT31;68672;42.676;23.356;2023-05-10T14:20:53;12.22;62.37
79244;SHT31;68672;42.676;23.356;2023-05-10T14:23:19;12.18;62.21
79244;SHT31;68672;42.676;23.356;2023-05-10T14:25:50;12.18;61.98
79244;SHT31;68672;42.676;23.356;2023-05-10T14:28:16;12.21;61.87
79244;SHT31;68672;42.676;23.356;2023-05-10T14:30:43;12.21;61.95
79244;SHT31;68672;42.676;23.356;2023-05-10T14:33:09;12.24;62.24
79244;SHT31;68672;42.676;23.356;2023-05-10T14:35:34;12.26;62.24
79244;SHT31;68672;42.676;23.356;2023-05-10T14:38:00;12.26;62.02
79244;SHT31;68672;42.676;23.356;2023-05-10T14:40:25;12.22;62.41
79244;SHT31;68672;42.676;23.356;2023-05-10T14:42:51;12.26;62.51
79244;SHT31;68672;42.676;23.356;2023-05-10T14:45:20;12.24;62.63
79244;SHT31;68672;42.676;23.356;2023-05-10T14:47:46;12.32;62.12
79244;SHT31;68672;42.676;23.356;2023-05-10T14:50:12;12.31;62.33
79244;SHT31;68672;42.676;23.356;2023-05-10T14:52:37;12.32;62.18
79244;SHT31;68672;42.676;23.356;2023-05-10T14:55:05;12.45;61.98
79244;SHT31;68672;42.676;23.356;2023-05-10T14:57:31;12.52;61.40
79244;SHT31;68672;42.676;23.356;2023-05-10T14:59:57;12.52;61.53
79244;SHT31;68672;42.676;23.356;2023-05-10T15:02:25;12.49;61.14
79244;SHT31;68672;42.676;23.356;2023-05-10T15:04:51;12.49;61.65
79244;SHT31;68672;42.676;23.356;2023-05-10T15:07:16;12.48;61.27
79244;SHT31;68672;42.676;23.356;2023-05-10T15:09:46;12.49;61.27
79244;SHT31;68672;42.676;23.356;2023-05-10T15:12:11;12.43;61.14
79244;SHT31;68672;42.676;23.356;2023-05-10T15:14:37;12.36;61.42
79244;SHT31;68672;42.676;23.356;2023-05-10T15:17:03;12.32;62.22
79244;SHT31;68672;42.676;23.356;2023-05-10T15:19:29;12.36;61.61
79244;SHT31;68672;42.676;23.356;2023-05-10T15:21:55;12.36;61.31
79244;SHT31;68672;42.676;23.356;2023-05-10T15:24:20;12.38;61.25
79244;SHT31;68672;42.676;23.356;2023-05-10T15:26:46;12.41;61.12
79244;SHT31;68672;42.676;23.356;2023-05-10T15:29:24;12.46;60.88
79244;SHT31;68672;42.676;23.356;2023-05-10T15:31:50;12.45;61.04
79244;SHT31;68672;42.676;23.356;2023-05-10T15:34:16;12.42;60.95
79244;SHT31;68672;42.676;23.356;2023-05-10T15:36:45;12.43;61.01
79244;SHT31;68672;42.676;23.356;2023-05-10T15:39:11;12.45;60.67
79244;SHT31;68672;42.676;23.356;2023-05-10T15:41:37;12.41;60.87
79244;SHT31;68672;42.676;23.356;2023-05-10T15:44:02;12.42;60.73
79244;SHT31;68672;42.676;23.356;2023-05-10T15:46:28;12.38;60.80
79244;SHT31;68672;42.676;23.356;2023-05-10T15:48:53;12.35;61.19
79244;SHT31;68672;42.676;23.356;2023-05-10T15:51:22;12.38;61.14
79244;SHT31;68672;42.676;23.356;2023-05-10T15:53:47;12.42;61.07
79244;SHT31;68672;42.676;23.356;2023-05-10T15:56:13;12.42;61.08
79244;SHT31;68672;42.676;23.356;2023-05-10T15:58:39;12.39;61.03
79244;SHT31;68672;42.676;23.356;2023-05-10T16:01:07;12.43;60.76